Time;durP1;ratioP1;P1;durP2;ratioP2;P2;SDS_P1;SDS_P2;PMS_P1;PMS_P2;Temp;Humidity;BMP_temperature;BMP_pressure;BME280_temperature;BME280_humidity;BME280_pressure;Samples;Min_cycle;Max_cycle;Signal;HPM_P1;HPM_P2
2021/12/12 00:02:19;;;;;;;3.20;1.60;;;1.70;99.90;;;;;;5085479;28;20211;-59
2021/12/12 00:04:48;;;;;;;3.67;1.43;;;1.60;99.90;;;;;;5086391;28;20181;-59
2021/12/12 00:07:21;;;;;;;2.00;1.50;;;1.60;99.90;;;;;;5086046;28;20264;-58
2021/12/12 00:09:51;;;;;;;2.77;1.60;;;1.50;99.90;;;;;;5086487;28;20189;-59
2021/12/12 00:12:24;;;;;;;1.73;1.20;;;1.50;99.90;;;;;;5085293;28;20687;-59
2021/12/12 00:14:52;;;;;;;1.20;1.10;;;1.50;99.90;;;;;;5086499;28;20189;-59
2021/12/12 00:17:20;;;;;;;1.67;1.30;;;1.40;99.90;;;;;;5085235;28;20217;-59
2021/12/12 00:19:49;;;;;;;3.00;1.43;;;1.50;99.90;;;;;;5086207;28;20268;-58
2021/12/12 00:22:19;;;;;;;2.37;1.23;;;1.40;99.90;;;;;;5085896;28;20197;-59
2021/12/12 00:24:47;;;;;;;2.60;1.30;;;1.40;99.90;;;;;;5085873;28;20273;-59
2021/12/12 00:27:15;;;;;;;2.87;1.40;;;1.30;99.90;;;;;;5084841;28;20268;-59
2021/12/12 00:29:42;;;;;;;1.83;1.20;;;1.30;99.90;;;;;;5085808;28;20228;-59
2021/12/12 00:32:14;;;;;;;2.13;1.13;;;1.20;99.90;;;;;;5085258;28;20840;-59
2021/12/12 00:34:46;;;;;;;2.03;1.30;;;1.20;99.90;;;;;;5085639;28;20192;-59
2021/12/12 00:37:14;;;;;;;1.90;1.40;;;1.30;99.90;;;;;;5085240;28;20224;-59
2021/12/12 00:39:45;;;;;;;1.60;1.13;;;1.30;99.90;;;;;;5085601;28;20284;-58
2021/12/12 00:42:16;;;;;;;2.73;1.73;;;1.40;99.90;;;;;;5085064;28;20228;-59
2021/12/12 00:44:47;;;;;;;2.57;1.27;;;1.40;99.90;;;;;;5085747;28;20189;-59
2021/12/12 00:47:14;;;;;;;1.00;0.90;;;1.40;99.90;;;;;;5084675;28;20237;-59
2021/12/12 00:49:42;;;;;;;2.80;1.30;;;1.40;99.90;;;;;;5085342;28;20204;-58
2021/12/12 00:52:12;;;;;;;1.87;1.17;;;1.30;99.90;;;;;;5085315;28;20289;-59
2021/12/12 00:54:41;;;;;;;2.23;0.97;;;1.20;99.90;;;;;;5085218;28;20284;-59
2021/12/12 00:57:12;;;;;;;1.40;1.13;;;1.20;99.90;;;;;;5084421;28;20221;-59
2021/12/12 00:59:39;;;;;;;2.07;1.40;;;1.10;99.90;;;;;;5085466;28;20280;-59
2021/12/12 01:02:09;;;;;;;1.30;0.97;;;1.20;99.90;;;;;;5084298;28;20235;-58
2021/12/12 01:04:41;;;;;;;2.10;1.67;;;1.10;99.90;;;;;;5085385;28;20280;-59
2021/12/12 01:07:12;;;;;;;1.93;1.37;;;1.10;99.90;;;;;;5084742;28;20231;-59
2021/12/12 01:09:43;;;;;;;1.93;1.30;;;1.10;99.90;;;;;;5085427;28;20189;-59
2021/12/12 01:12:13;;;;;;;1.67;1.20;;;1.10;99.90;;;;;;5084238;28;20217;-59
2021/12/12 01:14:44;;;;;;;2.60;1.20;;;1.10;99.90;;;;;;5085435;28;20272;-59
2021/12/12 01:17:15;;;;;;;1.43;1.10;;;1.10;99.90;;;;;;5084350;28;20207;-59
2021/12/12 01:19:49;;;;;;;1.37;1.27;;;1.20;99.90;;;;;;5084791;28;20688;-59
2021/12/12 01:22:25;;;;;;;2.53;1.27;;;1.20;99.90;;;;;;5084797;28;20216;-59
2021/12/12 01:24:58;;;;;;;3.67;1.50;;;1.20;99.90;;;;;;5084544;28;20188;-59
2021/12/12 01:27:25;;;;;;;1.80;1.17;;;1.20;99.90;;;;;;5083845;28;20308;-59
2021/12/12 01:29:52;;;;;;;1.33;1.20;;;1.20;99.90;;;;;;5085250;28;20268;-59
2021/12/12 01:32:27;;;;;;;2.83;1.30;;;1.20;99.90;;;;;;5084095;28;20284;-58
2021/12/12 01:34:56;;;;;;;1.83;1.40;;;1.10;99.90;;;;;;5085135;28;20208;-59
2021/12/12 01:37:37;;;;;;;1.10;1.00;;;1.10;99.90;;;;;;5084689;28;20257;-59
2021/12/12 01:40:12;;;;;;;1.87;1.10;;;1.00;99.90;;;;;;5084909;28;20284;-59
2021/12/12 01:42:42;;;;;;;1.83;1.50;;;1.00;99.90;;;;;;5084010;28;20264;-59
2021/12/12 01:45:12;;;;;;;1.57;1.30;;;0.90;99.90;;;;;;5085133;28;20397;-59
2021/12/12 01:47:45;;;;;;;1.37;1.27;;;0.90;99.90;;;;;;5087867;28;20293;-58
2021/12/12 01:50:14;;;;;;;3.57;1.53;;;0.80;99.90;;;;;;5088159;28;20743;-59
2021/12/12 01:52:43;;;;;;;2.47;1.40;;;0.80;99.90;;;;;;5077179;28;20250;-59
2021/12/12 01:55:21;;;;;;;2.00;1.27;;;0.80;99.90;;;;;;5088526;28;20292;-59
2021/12/12 01:57:49;;;;;;;2.73;1.30;;;0.70;99.90;;;;;;5087677;28;20208;-59
2021/12/12 02:00:23;;;;;;;1.90;1.03;;;0.60;99.90;;;;;;5088834;28;20201;-59
2021/12/12 02:02:50;;;;;;;2.90;1.10;;;0.60;99.90;;;;;;5088396;28;20278;-59
2021/12/12 02:05:20;;;;;;;2.93;1.20;;;0.50;99.90;;;;;;5088721;28;20215;-59
2021/12/12 02:07:54;;;;;;;1.70;1.17;;;0.50;99.90;;;;;;5088073;28;20233;-59
2021/12/12 02:10:26;;;;;;;1.90;1.20;;;0.50;99.90;;;;;;5088658;28;20188;-58
2021/12/12 02:12:53;;;;;;;2.20;1.20;;;0.50;99.90;;;;;;5087802;28;20202;-59
2021/12/12 02:15:21;;;;;;;1.03;0.90;;;0.50;99.90;;;;;;5088678;28;20205;-59
2021/12/12 02:17:49;;;;;;;1.23;1.03;;;0.60;99.90;;;;;;5087369;28;20296;-59
2021/12/12 02:20:28;;;;;;;1.40;1.10;;;0.60;99.90;;;;;;5088562;28;20216;-59
2021/12/12 02:23:06;;;;;;;1.70;1.00;;;0.50;99.90;;;;;;5088222;28;20232;-59
2021/12/12 02:36:42;;;;;;;2.27;1.20;;;0.60;99.90;;;;;;5087782;28;20686;-59
2021/12/12 02:39:15;;;;;;;0.60;0.60;;;0.60;99.90;;;;;;5087878;28;20272;-59
2021/12/12 02:41:44;;;;;;;2.53;0.90;;;0.60;99.90;;;;;;5087024;28;20185;-59
2021/12/12 02:44:12;;;;;;;0.80;0.80;;;0.60;99.90;;;;;;5087921;28;20223;-60
2021/12/12 02:46:41;;;;;;;0.87;0.80;;;0.60;99.90;;;;;;5086727;28;20320;-59
2021/12/12 02:49:23;;;;;;;1.90;0.97;;;0.60;99.90;;;;;;5087701;28;20232;-59
2021/12/12 02:51:51;;;;;;;1.47;0.90;;;0.60;99.90;;;;;;5087742;28;20270;-59
2021/12/12 02:54:21;;;;;;;0.50;0.33;;;0.60;99.90;;;;;;5087320;28;20207;-59
2021/12/12 02:56:50;;;;;;;1.13;0.60;;;0.50;99.90;;;;;;5086586;28;20460;-59
2021/12/12 02:59:20;;;;;;;1.50;0.77;;;0.50;99.90;;;;;;5087567;28;20209;-59
2021/12/12 03:01:50;;;;;;;1.40;0.90;;;0.50;99.90;;;;;;5086522;28;20215;-59
2021/12/12 03:04:17;;;;;;;2.43;0.77;;;0.60;99.90;;;;;;5087655;28;20254;-59
2021/12/12 03:06:45;;;;;;;1.43;0.90;;;0.70;99.90;;;;;;5087077;28;20235;-59
2021/12/12 03:09:14;;;;;;;1.80;1.17;;;0.70;99.90;;;;;;5087204;28;20209;-59
2021/12/12 03:11:44;;;;;;;1.57;0.70;;;0.80;99.90;;;;;;5086383;28;20305;-59
2021/12/12 03:14:11;;;;;;;0.70;0.70;;;0.80;99.90;;;;;;5087259;28;20264;-60
2021/12/12 03:16:38;;;;;;;0.90;0.90;;;0.90;99.90;;;;;;5086716;28;20209;-59
2021/12/12 03:19:06;;;;;;;2.17;0.93;;;0.90;99.90;;;;;;5087316;28;20201;-59
2021/12/12 03:21:37;;;;;;;1.20;1.10;;;0.90;99.90;;;;;;5087029;28;20201;-59
2021/12/12 03:24:07;;;;;;;1.30;0.80;;;0.90;99.90;;;;;;5086827;28;20255;-59
2021/12/12 03:26:35;;;;;;;1.87;0.70;;;0.90;99.90;;;;;;5086362;28;20221;-59
2021/12/12 03:29:06;;;;;;;1.43;1.00;;;0.80;99.90;;;;;;5086947;28;20204;-59
2021/12/12 03:31:36;;;;;;;0.97;0.83;;;0.80;99.90;;;;;;5086407;28;20192;-59
2021/12/12 03:34:05;;;;;;;0.80;0.77;;;0.80;99.90;;;;;;5086650;28;20209;-60
2021/12/12 03:36:32;;;;;;;0.97;0.90;;;0.90;99.90;;;;;;5086710;28;20208;-59
2021/12/12 03:39:04;;;;;;;1.53;1.20;;;0.90;99.90;;;;;;5086842;28;20288;-59
2021/12/12 03:41:35;;;;;;;2.07;0.93;;;1.00;99.90;;;;;;5086096;28;20253;-59
2021/12/12 03:44:07;;;;;;;2.23;1.07;;;1.00;99.90;;;;;;5086696;28;20205;-59
2021/12/12 03:46:35;;;;;;;1.73;1.40;;;1.10;99.90;;;;;;5085797;28;20339;-59
2021/12/12 03:49:04;;;;;;;2.03;1.47;;;1.20;99.90;;;;;;5086377;28;20263;-59
2021/12/12 03:51:32;;;;;;;1.80;1.37;;;1.20;99.90;;;;;;5086235;28;20269;-59
2021/12/12 03:54:00;;;;;;;6.00;1.37;;;1.20;99.90;;;;;;5086233;28;20207;-59
2021/12/12 03:56:28;;;;;;;2.60;1.43;;;1.30;99.90;;;;;;5085574;28;20655;-59
2021/12/12 03:58:56;;;;;;;1.13;1.03;;;1.30;99.90;;;;;;5086322;28;20227;-59
2021/12/12 04:01:29;;;;;;;2.20;1.90;;;1.40;99.90;;;;;;5086314;28;20200;-59
2021/12/12 04:04:01;;;;;;;2.43;1.40;;;1.40;99.90;;;;;;5086068;28;20215;-59
2021/12/12 04:06:30;;;;;;;5.60;1.97;;;1.50;99.90;;;;;;5085978;28;20215;-59
2021/12/12 04:08:58;;;;;;;2.03;1.27;;;1.50;99.90;;;;;;5085411;28;20209;-59
2021/12/12 04:11:27;;;;;;;4.27;1.60;;;1.50;99.90;;;;;;5085558;28;20221;-59
2021/12/12 04:13:57;;;;;;;2.90;2.00;;;1.60;99.90;;;;;;5086269;28;20211;-59
2021/12/12 04:16:27;;;;;;;2.23;2.00;;;1.60;99.90;;;;;;5085507;28;20272;-59
2021/12/12 04:18:54;;;;;;;7.40;2.10;;;1.60;99.90;;;;;;5085749;28;20215;-59
2021/12/12 04:21:23;;;;;;;2.93;1.80;;;1.60;99.90;;;;;;5085847;28;20201;-58
2021/12/12 04:23:50;;;;;;;3.27;1.83;;;1.60;99.90;;;;;;5085521;28;20225;-59
2021/12/12 04:26:20;;;;;;;3.53;2.00;;;1.60;99.90;;;;;;5085639;28;20576;-59
2021/12/12 04:28:57;;;;;;;4.17;1.83;;;1.70;99.90;;;;;;5085952;28;20205;-59
2021/12/12 04:31:25;;;;;;;2.40;2.03;;;1.70;99.90;;;;;;5085758;28;20185;-59
2021/12/12 04:33:52;;;;;;;2.40;1.60;;;1.70;99.90;;;;;;5085149;28;20571;-59
2021/12/12 04:36:25;;;;;;;2.60;1.83;;;1.70;99.90;;;;;;5085494;28;20210;-59
2021/12/12 04:38:52;;;;;;;3.33;1.80;;;1.70;99.90;;;;;;5085648;28;20207;-59
2021/12/12 04:41:23;;;;;;;2.87;2.03;;;1.80;99.90;;;;;;5085370;28;20272;-58
2021/12/12 04:43:50;;;;;;;4.13;2.10;;;1.70;99.90;;;;;;5085665;28;20269;-59
2021/12/12 04:46:24;;;;;;;5.90;2.73;;;1.70;99.90;;;;;;5084932;28;20320;-59
2021/12/12 04:51:51;;;;;;;2.80;2.07;;;1.80;99.90;;;;;;5085321;28;20184;-59
2021/12/12 04:54:26;;;;;;;3.03;2.10;;;1.80;99.90;;;;;;5085113;28;20189;-59
2021/12/12 04:57:00;;;;;;;4.93;2.17;;;1.80;99.90;;;;;;5084481;28;20205;-59
2021/12/12 04:59:33;;;;;;;4.90;1.83;;;1.80;99.90;;;;;;5085266;28;20265;-59
2021/12/12 05:02:05;;;;;;;5.07;3.47;;;1.80;99.90;;;;;;5084461;28;20204;-59
2021/12/12 05:04:38;;;;;;;3.50;1.73;;;1.90;99.90;;;;;;5085328;28;20212;-59
2021/12/12 05:07:10;;;;;;;3.37;2.57;;;1.90;99.90;;;;;;5084738;28;20225;-59
2021/12/12 05:09:43;;;;;;;4.23;2.13;;;1.90;99.90;;;;;;5084977;28;20262;-59
2021/12/12 05:12:16;;;;;;;2.77;2.13;;;1.90;99.90;;;;;;5084165;28;20276;-59
2021/12/12 05:14:49;;;;;;;3.90;2.03;;;1.90;99.90;;;;;;5085294;28;20196;-59
2021/12/12 05:17:22;;;;;;;3.03;2.20;;;1.90;99.90;;;;;;5084286;28;20667;-59
2021/12/12 05:19:54;;;;;;;2.57;1.80;;;1.90;99.90;;;;;;5084943;28;20185;-60
2021/12/12 05:22:26;;;;;;;2.47;1.83;;;1.90;99.90;;;;;;5084649;28;20273;-59
2021/12/12 05:24:54;;;;;;;4.97;2.30;;;1.90;99.90;;;;;;5084715;28;20192;-59
2021/12/12 05:27:25;;;;;;;3.17;2.37;;;2.00;99.90;;;;;;5083707;28;20844;-59
2021/12/12 05:29:58;;;;;;;4.40;2.53;;;2.00;99.90;;;;;;5084870;28;20194;-59
2021/12/12 05:32:27;;;;;;;2.80;1.87;;;2.00;99.90;;;;;;5084297;28;20205;-60
2021/12/12 05:34:57;;;;;;;3.37;2.00;;;1.90;99.90;;;;;;5085004;28;20201;-59
2021/12/12 05:37:24;;;;;;;2.80;2.10;;;2.00;99.90;;;;;;5084285;28;20289;-59
2021/12/12 05:39:52;;;;;;;3.60;2.23;;;2.00;99.90;;;;;;5084961;28;20239;-59
2021/12/12 05:42:20;;;;;;;3.57;2.00;;;2.00;99.90;;;;;;5084044;28;20268;-59
2021/12/12 05:44:48;;;;;;;4.30;2.40;;;2.00;99.90;;;;;;5085023;28;20201;-59
2021/12/12 05:47:16;;;;;;;4.30;1.93;;;2.10;99.90;;;;;;5083720;28;20243;-59
2021/12/12 05:49:43;;;;;;;3.40;2.20;;;2.10;99.90;;;;;;5084774;28;20205;-59
2021/12/12 05:52:14;;;;;;;3.23;2.03;;;2.10;99.90;;;;;;5084498;28;20224;-59
2021/12/12 05:54:42;;;;;;;3.70;2.37;;;2.20;99.90;;;;;;5084597;28;20234;-59
2021/12/12 05:57:10;;;;;;;3.17;2.33;;;2.20;99.90;;;;;;5083483;28;20203;-59
2021/12/12 05:59:37;;;;;;;5.67;2.20;;;2.20;99.90;;;;;;5084283;28;20608;-59
2021/12/12 06:02:06;;;;;;;3.33;2.13;;;2.20;99.90;;;;;;5083973;28;20205;-59
2021/12/12 06:04:34;;;;;;;5.37;2.20;;;2.20;99.90;;;;;;5084742;28;20304;-59
2021/12/12 06:07:03;;;;;;;3.23;2.27;;;2.20;99.90;;;;;;5083438;28;20233;-59
2021/12/12 06:09:33;;;;;;;6.40;2.17;;;2.20;99.90;;;;;;5079517;28;20240;-59
2021/12/12 06:12:06;;;;;;;4.20;2.40;;;2.20;99.90;;;;;;5078422;28;20189;-59
2021/12/12 06:14:34;;;;;;;3.90;1.97;;;2.30;99.90;;;;;;5079069;28;20186;-59
2021/12/12 06:17:02;;;;;;;4.33;2.50;;;2.30;99.90;;;;;;5077550;28;20208;-59
2021/12/12 06:19:32;;;;;;;2.70;1.97;;;2.30;99.90;;;;;;5080221;28;20575;-59
2021/12/12 06:22:01;;;;;;;2.93;2.13;;;2.30;99.90;;;;;;5080692;28;20227;-59
2021/12/12 06:24:32;;;;;;;4.97;2.37;;;2.30;99.90;;;;;;5078008;28;20262;-59
2021/12/12 06:27:05;;;;;;;2.70;1.97;;;2.20;99.90;;;;;;5079901;28;20326;-59
2021/12/12 06:29:32;;;;;;;3.37;2.13;;;2.30;99.90;;;;;;5080109;28;20261;-59
2021/12/12 06:32:00;;;;;;;2.17;1.70;;;2.20;99.90;;;;;;5081510;28;20197;-59
2021/12/12 06:34:27;;;;;;;2.77;1.97;;;2.20;99.90;;;;;;5085005;28;20280;-59
2021/12/12 06:36:54;;;;;;;4.63;2.00;;;2.30;99.90;;;;;;5085384;28;20251;-59
2021/12/12 06:39:22;;;;;;;5.00;2.00;;;2.30;99.90;;;;;;5086203;28;20323;-59
2021/12/12 06:41:52;;;;;;;3.93;1.93;;;2.30;99.90;;;;;;5082321;28;20197;-59
2021/12/12 06:44:19;;;;;;;4.30;1.77;;;2.40;99.90;;;;;;5075717;28;20213;-58
2021/12/12 06:46:47;;;;;;;3.00;1.80;;;2.40;99.90;;;;;;5083783;28;20321;-58
2021/12/12 06:49:16;;;;;;;4.10;2.23;;;2.30;99.90;;;;;;5080355;28;20313;-59
2021/12/12 06:51:47;;;;;;;3.57;2.53;;;2.30;99.90;;;;;;5079912;28;20216;-59
2021/12/12 06:54:16;;;;;;;4.23;2.60;;;2.30;99.90;;;;;;5081037;28;20261;-59
2021/12/12 06:56:43;;;;;;;3.03;2.30;;;2.30;99.90;;;;;;5078891;28;20205;-59
2021/12/12 06:59:11;;;;;;;3.57;2.33;;;2.30;99.90;;;;;;5076085;28;20200;-59
2021/12/12 07:01:39;;;;;;;4.23;2.33;;;2.30;99.90;;;;;;5077693;28;20203;-59
2021/12/12 07:04:10;;;;;;;4.90;2.40;;;2.30;99.90;;;;;;5074280;28;20197;-60
2021/12/12 07:06:38;;;;;;;4.30;2.60;;;2.30;99.90;;;;;;5077768;28;21218;-59
2021/12/12 07:09:08;;;;;;;4.07;2.27;;;2.30;99.90;;;;;;5076025;28;20210;-59
2021/12/12 07:11:37;;;;;;;4.97;2.30;;;2.40;99.90;;;;;;5072697;28;20186;-59
2021/12/12 07:14:05;;;;;;;3.83;2.90;;;2.40;99.90;;;;;;5067123;28;20273;-60
2021/12/12 07:16:34;;;;;;;8.37;2.60;;;2.50;99.90;;;;;;5066959;28;20212;-59
2021/12/12 07:19:01;;;;;;;3.33;2.27;;;2.50;99.90;;;;;;5066655;28;20201;-59
2021/12/12 07:21:29;;;;;;;3.23;2.03;;;2.50;99.90;;;;;;5067071;28;20208;-58
2021/12/12 07:23:56;;;;;;;4.83;2.00;;;2.50;99.90;;;;;;5086770;28;20301;-59
2021/12/12 07:26:24;;;;;;;4.30;2.47;;;2.50;99.90;;;;;;5086334;28;20229;-59
2021/12/12 07:28:53;;;;;;;7.17;2.40;;;2.50;99.90;;;;;;5086752;28;20235;-59
2021/12/12 07:31:24;;;;;;;4.97;2.63;;;2.50;99.90;;;;;;5086882;28;20233;-59
2021/12/12 07:33:55;;;;;;;2.73;2.20;;;2.50;99.90;;;;;;5086434;28;20272;-59
2021/12/12 07:36:23;;;;;;;5.77;2.97;;;2.50;99.90;;;;;;5086748;28;20193;-59
2021/12/12 07:38:54;;;;;;;5.97;1.90;;;2.50;99.90;;;;;;5083375;28;20198;-59
2021/12/12 07:41:26;;;;;;;5.33;1.90;;;2.50;99.90;;;;;;5075179;28;20189;-58
2021/12/12 07:43:53;;;;;;;5.00;1.90;;;2.50;99.90;;;;;;5073229;28;20202;-59
2021/12/12 07:46:20;;;;;;;4.50;2.00;;;2.50;99.90;;;;;;5066269;28;20649;-58
2021/12/12 07:48:50;;;;;;;2.57;1.80;;;2.60;99.90;;;;;;5065927;28;20633;-58
2021/12/12 07:51:20;;;;;;;5.07;2.10;;;2.60;99.90;;;;;;5076503;28;20190;-60
2021/12/12 07:53:49;;;;;;;9.97;4.93;;;2.60;99.90;;;;;;5080319;28;20197;-59
2021/12/12 07:56:17;;;;;;;9.50;4.83;;;2.70;99.90;;;;;;5086418;28;20240;-58
2021/12/12 07:58:44;;;;;;;5.13;2.80;;;2.70;99.90;;;;;;5085634;28;20197;-59
2021/12/12 08:01:13;;;;;;;3.30;2.10;;;2.70;99.90;;;;;;5086349;28;20200;-59
2021/12/12 08:03:41;;;;;;;2.73;1.90;;;2.70;99.90;;;;;;5085728;28;20204;-59
2021/12/12 08:06:10;;;;;;;2.93;2.07;;;2.70;99.90;;;;;;5085959;28;20223;-59
2021/12/12 08:08:39;;;;;;;2.60;2.07;;;2.70;99.90;;;;;;5082219;28;20214;-59
2021/12/12 08:11:07;;;;;;;3.17;2.60;;;2.70;99.90;;;;;;5065847;28;20292;-59
2021/12/12 08:13:38;;;;;;;2.80;1.70;;;2.80;99.90;;;;;;5102376;22;20296;-83
2021/12/12 08:16:10;;;;;;;6.07;2.00;;;2.80;99.90;;;;;;5096940;28;20181;-82
2021/12/12 08:18:48;;;;;;;3.20;2.13;;;2.80;99.90;;;;;;5090488;28;20197;-80
2021/12/12 08:21:20;;;;;;;3.10;2.30;;;2.80;99.90;;;;;;5078838;28;20320;-81
2021/12/12 08:23:55;;;;;;;3.90;1.77;;;;;;;;;;5093613;28;20205;-80
2021/12/12 08:26:25;;;;;;;3.13;1.90;;;2.80;99.90;;;;;;5093957;28;20236;-80
2021/12/12 08:28:52;;;;;;;5.90;2.73;;;2.80;99.90;;;;;;5093201;28;20244;-80
2021/12/12 08:31:19;;;;;;;5.47;2.43;;;;;;;;;;5091559;28;20829;-80
2021/12/12 08:33:48;;;;;;;2.80;2.00;;;1.90;99.90;;;;;;5093092;28;20205;-80
2021/12/12 08:36:16;;;;;;;7.10;2.97;;;2.90;99.90;;;;;;5074139;28;20197;-80
2021/12/12 08:38:46;;;;;;;9.27;3.83;;;3.90;99.90;;;;;;5091256;28;20205;-82
2021/12/12 08:41:15;;;;;;;3.23;2.20;;;1.90;99.90;;;;;;5093324;28;20213;-81
2021/12/12 08:43:44;;;;;;;4.13;1.87;;;4.80;99.90;;;;;;5090082;28;20208;-80
2021/12/12 08:46:14;;;;;;;2.43;1.87;;;2.90;99.90;;;;;;5090376;28;20208;-79
2021/12/12 08:48:44;;;;;;;8.60;3.40;;;3.80;99.90;;;;;;5091961;28;20221;-81
2021/12/12 08:51:17;;;;;;;2.37;1.80;;;2.80;99.90;;;;;;5090945;28;20235;-81
2021/12/12 08:53:49;;;;;;;3.27;1.80;;;2.80;99.90;;;;;;5091552;28;20201;-80
2021/12/12 08:56:31;;;;;;;2.73;1.57;;;3.20;99.90;;;;;;5090543;28;20205;-79
2021/12/12 08:59:00;;;;;;;7.90;4.00;;;2.80;99.90;;;;;;5091678;28;20221;-81
2021/12/12 09:01:27;;;;;;;3.93;2.13;;;2.90;99.90;;;;;;5090280;28;20212;-79
2021/12/12 09:03:57;;;;;;;3.77;1.63;;;3.00;99.90;;;;;;5090406;28;20213;-80
2021/12/12 09:06:29;;;;;;;5.17;2.10;;;3.00;99.90;;;;;;5088087;28;20201;-78
2021/12/12 09:09:00;;;;;;;6.80;2.70;;;2.90;99.90;;;;;;5087015;28;20312;-79
2021/12/12 09:11:33;;;;;;;10.67;4.43;;;3.80;99.90;;;;;;5088767;28;20247;-81
2021/12/12 09:14:07;;;;;;;4.13;2.27;;;3.00;99.90;;;;;;5089033;28;20248;-80
2021/12/12 09:16:39;;;;;;;5.70;1.57;;;3.00;99.90;;;;;;5089232;28;20215;-79
2021/12/12 09:19:10;;;;;;;4.90;1.70;;;3.00;99.90;;;;;;5088784;28;20216;-79
2021/12/12 09:21:48;;;;;;;2.83;1.97;;;3.10;99.90;;;;;;5089814;28;20193;-81
2021/12/12 09:24:24;;;;;;;6.33;2.17;;;3.10;99.90;;;;;;5089842;28;20231;-80
2021/12/12 09:26:58;;;;;;;5.17;1.97;;;4.60;99.90;;;;;;5089284;28;20197;-80
2021/12/12 09:29:29;;;;;;;1.77;1.27;;;3.20;99.90;;;;;;5089640;28;20288;-80
2021/12/12 09:32:02;;;;;;;10.03;3.73;;;4.60;99.90;;;;;;5089413;28;20201;-78
2021/12/12 09:34:36;;;;;;;5.03;2.23;;;3.70;99.90;;;;;;5091587;28;20264;-81
2021/12/12 09:37:11;;;;;;;2.80;1.67;;;3.40;99.90;;;;;;5091912;28;20212;-80
2021/12/12 09:39:42;;;;;;;4.13;1.23;;;3.40;99.90;;;;;;5088642;28;20230;-80
2021/12/12 09:42:32;;;;;;;2.57;1.30;;;6.40;99.90;;;;;;5088391;28;20590;-79
2021/12/12 09:45:13;;;;;;;2.70;1.40;;;3.40;99.90;;;;;;5092324;28;20193;-82
2021/12/12 09:51:14;;;;;;;6.53;1.30;;;3.40;99.90;;;;;;5092553;28;20189;-81
2021/12/12 09:51:27;;;;;;;1.33;1.17;;;3.40;99.90;;;;;;5095069;28;20177;-81
2021/12/12 09:54:30;;;;;;;5.20;1.50;;;3.40;99.90;;;;;;5091238;28;20193;-81
2021/12/12 09:57:25;;;;;;;1.20;1.10;;;4.30;99.90;;;;;;5081352;28;20202;-82
2021/12/12 10:00:43;;;;;;;1.33;1.10;;;3.50;99.90;;;;;;5077843;28;20220;-82
2021/12/12 10:03:40;;;;;;;2.60;1.30;;;3.50;99.90;;;;;;5093697;28;20240;-80
2021/12/12 10:06:42;;;;;;;2.97;1.90;;;3.50;99.90;;;;;;5094743;28;20209;-83
2021/12/12 10:09:23;;;;;;;1.77;1.33;;;3.40;99.90;;;;;;5060688;28;20209;-84
2021/12/12 10:15:00;;;;;;;1.53;1.23;;;3.40;99.90;;;;;;5097259;28;20229;-80
2021/12/12 10:17:35;;;;;;;2.57;1.50;;;3.50;99.90;;;;;;5116884;22;20236;-61
2021/12/12 10:20:08;;;;;;;1.97;1.30;;;3.40;99.90;;;;;;5107421;28;20219;-61
2021/12/12 10:22:49;;;;;;;1.90;1.60;;;3.50;99.90;;;;;;5107691;28;20248;-59
2021/12/12 10:25:18;;;;;;;1.20;1.10;;;3.50;99.90;;;;;;5107621;28;20275;-60
2021/12/12 10:27:51;;;;;;;2.53;1.20;;;3.50;99.90;;;;;;5106634;28;20211;-59
2021/12/12 10:30:27;;;;;;;1.73;1.10;;;3.50;99.90;;;;;;5107537;28;20197;-61
2021/12/12 10:33:07;;;;;;;1.20;1.10;;;3.60;99.90;;;;;;5107002;28;20227;-60
2021/12/12 10:35:41;;;;;;;5.07;1.37;;;3.60;99.90;;;;;;5107912;28;20185;-58
2021/12/12 10:38:11;;;;;;;1.33;1.17;;;3.60;99.90;;;;;;5106876;28;20208;-59
2021/12/12 10:40:49;;;;;;;1.37;0.93;;;3.60;99.90;;;;;;5107446;28;20224;-59
2021/12/12 10:43:23;;;;;;;1.43;1.30;;;3.50;99.90;;;;;;5106432;28;20248;-58
2021/12/12 10:45:57;;;;;;;1.37;1.20;;;3.40;99.90;;;;;;5107624;28;20758;-58
2021/12/12 10:48:31;;;;;;;1.23;1.13;;;3.50;99.90;;;;;;5106287;28;20657;-59
2021/12/12 10:51:04;;;;;;;1.10;1.00;;;3.50;99.90;;;;;;5107159;28;20212;-59
2021/12/12 10:53:39;;;;;;;1.60;1.23;;;3.50;99.90;;;;;;5106453;28;20219;-58
2021/12/12 10:56:18;;;;;;;0.97;0.97;;;3.60;99.90;;;;;;5109419;28;20223;-59
2021/12/12 10:58:49;;;;;;;2.00;1.10;;;3.60;99.90;;;;;;5104323;28;20200;-59
2021/12/12 11:01:20;;;;;;;1.83;1.37;;;3.60;99.90;;;;;;5105674;28;20205;-59
2021/12/12 11:03:49;;;;;;;2.07;1.30;;;3.60;99.90;;;;;;5088079;28;20663;-58
2021/12/12 11:06:23;;;;;;;1.13;1.03;;;3.60;99.90;;;;;;5090622;28;21183;-58
2021/12/12 11:08:57;;;;;;;1.33;1.17;;;3.60;99.90;;;;;;5096846;28;20220;-59
2021/12/12 11:11:27;;;;;;;1.70;1.40;;;3.50;99.90;;;;;;5092452;28;20181;-58
2021/12/12 11:14:03;;;;;;;2.73;1.77;;;3.50;99.90;;;;;;5086954;28;20216;-58
2021/12/12 11:16:34;;;;;;;1.63;1.40;;;3.60;99.90;;;;;;5083621;28;20297;-58
2021/12/12 11:19:06;;;;;;;1.20;1.10;;;3.60;99.90;;;;;;5086422;28;20227;-58
2021/12/12 11:21:38;;;;;;;1.50;1.17;;;3.60;99.90;;;;;;5084328;28;20221;-58
2021/12/12 11:24:11;;;;;;;1.47;1.27;;;3.60;99.90;;;;;;5084247;28;20661;-58
2021/12/12 11:26:42;;;;;;;3.33;1.33;;;3.60;99.90;;;;;;5086085;28;20253;-58
2021/12/12 11:29:13;;;;;;;0.93;0.90;;;3.60;99.90;;;;;;5085676;28;20245;-58
2021/12/12 11:31:46;;;;;;;0.93;0.83;;;3.70;99.90;;;;;;5086260;28;20240;-58
2021/12/12 11:34:14;;;;;;;1.40;1.20;;;3.70;99.90;;;;;;5085058;28;20202;-58
2021/12/12 11:37:04;;;;;;;4.17;1.40;;;3.80;99.90;;;;;;5085512;28;20194;-58
2021/12/12 11:39:39;;;;;;;1.10;1.00;;;3.90;99.90;;;;;;5091722;28;20193;-59
2021/12/12 11:42:12;;;;;;;1.23;1.13;;;3.80;99.90;;;;;;5086840;28;20185;-58
2021/12/12 11:44:43;;;;;;;1.13;1.00;;;3.90;99.90;;;;;;5091256;28;20189;-58
2021/12/12 11:47:19;;;;;;;1.10;1.00;;;3.90;99.90;;;;;;5089859;28;20263;-58
2021/12/12 11:49:51;;;;;;;2.40;0.80;;;4.00;99.90;;;;;;5095573;28;20204;-58
2021/12/12 11:52:39;;;;;;;1.03;0.60;;;4.00;99.90;;;;;;5092101;28;20185;-58
2021/12/12 11:55:12;;;;;;;1.53;0.90;;;4.00;99.90;;;;;;5091365;28;20186;-58
2021/12/12 11:57:47;;;;;;;1.70;1.23;;;4.00;99.90;;;;;;5090730;28;20397;-59
2021/12/12 12:00:19;;;;;;;1.53;1.20;;;4.00;99.90;;;;;;5088420;28;20570;-59
2021/12/12 12:02:56;;;;;;;1.17;1.07;;;4.10;99.90;;;;;;5082744;28;20200;-58
2021/12/12 12:05:35;;;;;;;1.20;1.10;;;4.10;99.90;;;;;;5107642;22;20227;-77
2021/12/12 12:08:14;;;;;;;0.70;0.70;;;4.20;99.90;;;;;;5100186;28;20196;-76
2021/12/12 12:10:51;;;;;;;4.53;1.13;;;4.10;99.90;;;;;;5102681;28;20208;-77
2021/12/12 12:13:38;;;;;;;1.77;1.20;;;4.20;99.90;;;;;;5101111;28;20250;-76
2021/12/12 12:16:17;;;;;;;1.13;0.90;;;4.20;99.90;;;;;;5087783;28;20201;-77
2021/12/12 12:18:53;;;;;;;1.17;0.97;;;4.20;99.90;;;;;;5095755;28;20209;-76
2021/12/12 12:21:27;;;;;;;0.87;0.87;;;4.60;99.90;;;;;;5102473;28;20260;-76
2021/12/12 12:24:13;;;;;;;1.20;1.10;;;4.10;99.90;;;;;;5102144;28;20226;-77
2021/12/12 12:26:52;;;;;;;1.37;1.20;;;4.20;99.90;;;;;;5102247;28;20752;-76
2021/12/12 12:30:08;;;;;;;1.57;1.10;;;4.20;99.90;;;;;;5101628;28;20212;-76
2021/12/12 12:33:23;;;;;;;3.40;2.50;;;4.20;99.90;;;;;;5100728;28;20223;-77
2021/12/12 12:36:32;;;;;;;1.43;1.20;;;4.20;99.90;;;;;;5103253;28;20275;-77
2021/12/12 12:39:58;;;;;;;1.63;1.27;;;4.20;99.90;;;;;;5037323;28;20208;-77
2021/12/12 12:43:02;;;;;;;0.90;0.90;;;4.20;99.90;;;;;;5038066;28;20580;-77
2021/12/12 12:46:11;;;;;;;1.47;1.00;;;4.10;99.90;;;;;;5039167;28;20194;-77
2021/12/12 12:49:32;;;;;;;1.13;1.03;;;4.10;99.90;;;;;;5040927;28;20190;-77
2021/12/12 12:52:28;;;;;;;1.93;1.50;;;4.10;99.90;;;;;;4983654;28;20204;-77
2021/12/12 12:55:40;;;;;;;1.17;1.17;;;4.20;99.90;;;;;;4952237;28;20231;-77
2021/12/12 12:58:15;;;;;;;2.73;1.27;;;4.20;99.90;;;;;;4925545;29;20229;-77
2021/12/12 13:00:43;;;;;;;1.80;1.47;;;4.30;99.90;;;;;;4926547;29;20394;-80
2021/12/12 13:03:17;;;;;;;1.70;1.20;;;4.30;99.90;;;;;;4924920;29;20209;-77
2021/12/12 13:06:20;;;;;;;1.47;1.37;;;4.30;99.90;;;;;;4926595;29;20313;-77
2021/12/12 13:09:15;;;;;;;1.40;1.30;;;4.30;99.90;;;;;;4923643;29;20278;-78
2021/12/12 13:11:55;;;;;;;1.37;1.27;;;4.30;99.90;;;;;;4924223;29;20226;-78
2021/12/12 13:14:35;;;;;;;1.90;1.80;;;4.40;99.90;;;;;;4925908;29;20288;-77
2021/12/12 13:17:12;;;;;;;1.37;1.27;;;4.30;99.90;;;;;;4964249;29;20205;-77
2021/12/12 13:19:54;;;;;;;2.10;1.27;;;4.30;99.90;;;;;;4964252;29;20200;-77
2021/12/12 13:22:26;;;;;;;2.73;1.50;;;4.30;99.90;;;;;;4964164;29;20264;-77
2021/12/12 13:25:04;;;;;;;3.03;1.50;;;4.30;99.90;;;;;;4968172;29;20245;-79
2021/12/12 13:28:03;;;;;;;1.77;1.67;;;5.10;99.90;;;;;;4988322;28;20580;-79
2021/12/12 13:30:43;;;;;;;1.80;1.70;;;4.20;99.90;;;;;;5045909;28;20293;-79
2021/12/12 13:33:25;;;;;;;4.47;2.37;;;4.30;99.90;;;;;;5098133;28;20230;-79
2021/12/12 13:36:18;;;;;;;3.43;1.80;;;4.30;99.90;;;;;;5109399;28;20333;-79
2021/12/12 13:39:04;;;;;;;3.40;2.10;;;4.40;99.90;;;;;;5095640;28;20214;-80
2021/12/12 13:41:55;;;;;;;4.67;2.57;;;4.50;99.90;;;;;;5112838;28;20188;-80
2021/12/12 13:44:39;;;;;;;2.53;1.93;;;4.50;99.90;;;;;;5083478;28;20188;-80
2021/12/12 13:47:18;;;;;;;3.20;2.60;;;4.50;99.90;;;;;;5115105;28;20196;-80
2021/12/12 13:49:59;;;;;;;2.47;1.83;;;4.50;99.90;;;;;;5112500;28;20204;-82